createdAt,value
2023-06-12T00:00:47.035Z,101197.60
2023-06-12T00:06:17.612Z,101196.80
2023-06-12T00:11:27.489Z,101187.60
2023-06-12T00:16:39.173Z,101188.00
2023-06-12T00:21:49.298Z,101178.20
2023-06-12T00:26:59.354Z,101176.40
2023-06-12T00:32:10.448Z,101176.00
2023-06-12T00:37:20.336Z,101176.20
2023-06-12T00:42:39.688Z,101176.20
2023-06-12T00:47:54.378Z,101179.20
2023-06-12T00:53:05.882Z,101178.60
2023-06-12T00:58:15.554Z,101178.80
2023-06-12T01:03:26.746Z,101175.60
2023-06-12T01:08:53.805Z,101176.60
2023-06-12T01:14:03.551Z,101177.40
2023-06-12T01:19:14.357Z,101175.00
2023-06-12T01:24:55.278Z,101172.00
2023-06-12T01:30:40.535Z,101172.20
2023-06-12T01:35:54.644Z,101171.20
2023-06-12T01:41:04.522Z,101171.60
2023-06-12T01:46:14.256Z,101176.20
2023-06-12T01:51:24.117Z,101178.00
2023-06-12T01:56:34.201Z,101167.20
2023-06-12T02:01:43.985Z,101169.20
2023-06-12T02:06:54.009Z,101165.00
2023-06-12T02:12:03.977Z,101165.40
2023-06-12T02:17:15.464Z,101160.40
2023-06-12T02:22:25.251Z,101151.80
2023-06-12T02:27:36.077Z,101147.80
2023-06-12T02:32:46.319Z,101147.40
2023-06-12T02:37:56.093Z,101151.80
2023-06-12T02:43:06.245Z,101155.40
2023-06-12T02:48:15.942Z,101150.60
2023-06-12T02:53:25.723Z,101157.40
2023-06-12T02:58:35.364Z,101152.20
2023-06-12T03:03:45.474Z,101161.00
2023-06-12T03:08:55.291Z,101167.00
2023-06-12T03:14:05.260Z,101165.40
2023-06-12T03:19:14.968Z,101168.20
2023-06-12T03:24:25.536Z,101178.80
2023-06-12T03:29:35.435Z,101182.40
2023-06-12T03:34:47.642Z,101186.20
2023-06-12T03:39:57.924Z,101187.60
2023-06-12T03:45:10.165Z,101194.40
2023-06-12T03:50:21.193Z,101194.60
2023-06-12T03:55:31.098Z,101198.00
2023-06-12T04:00:41.081Z,101199.20
2023-06-12T04:05:51.019Z,101198.80
2023-06-12T04:11:04.188Z,101198.40
2023-06-12T04:16:15.054Z,101195.40
2023-06-12T04:21:24.984Z,101199.40
2023-06-12T04:26:36.060Z,101204.20
2023-06-12T04:31:46.293Z,101211.40
2023-06-12T04:36:57.912Z,101212.00
2023-06-12T04:42:09.855Z,101215.60
2023-06-12T04:47:19.799Z,101219.80
2023-06-12T04:52:29.804Z,101220.60
2023-06-12T04:57:40.851Z,101232.20
2023-06-12T05:02:51.493Z,101229.40
2023-06-12T05:08:01.705Z,101236.80
2023-06-12T05:13:11.706Z,101231.20
2023-06-12T05:18:21.624Z,101226.00
2023-06-12T05:23:31.513Z,101226.40
2023-06-12T05:28:41.919Z,101225.20
2023-06-12T05:33:51.963Z,101233.40
2023-06-12T05:39:02.311Z,101231.60
2023-06-12T05:44:12.575Z,101227.40
2023-06-12T05:49:23.239Z,101226.20
2023-06-12T05:54:33.326Z,101230.00
2023-06-12T05:59:45.024Z,101228.60
2023-06-12T06:04:56.017Z,101237.80
2023-06-12T06:10:07.038Z,101234.20
2023-06-12T06:15:20.722Z,101236.00
2023-06-12T06:20:31.708Z,101235.80
2023-06-12T06:25:41.830Z,101231.60
2023-06-12T06:30:51.738Z,101232.80
2023-06-12T06:36:01.834Z,101239.20
2023-06-12T06:41:11.890Z,101239.60
2023-06-12T06:46:21.832Z,101243.80
2023-06-12T06:51:33.448Z,101246.20
2023-06-12T06:56:43.217Z,101249.00
2023-06-12T07:01:52.962Z,101248.20
2023-06-12T07:07:04.537Z,101249.40
2023-06-12T07:12:15.289Z,101244.20
2023-06-12T07:17:27.652Z,101240.60
2023-06-12T07:22:37.674Z,101239.80
2023-06-12T07:27:47.995Z,101240.80
2023-06-12T07:32:57.966Z,101235.20
2023-06-12T07:38:08.196Z,101237.60
2023-06-12T07:43:18.228Z,101239.00
2023-06-12T07:48:28.438Z,101242.80
2023-06-12T07:53:39.570Z,101244.20
2023-06-12T07:58:50.143Z,101237.80
2023-06-12T08:04:00.048Z,101244.20
2023-06-12T08:09:11.122Z,101237.60
2023-06-12T08:14:21.073Z,101225.60
2023-06-12T08:19:30.946Z,101227.40
2023-06-12T08:24:43.142Z,101220.00
2023-06-12T08:29:52.835Z,101214.60
2023-06-12T08:35:02.607Z,101224.00
2023-06-12T08:40:15.137Z,101227.80
2023-06-12T08:45:29.558Z,101213.60
2023-06-12T08:50:42.293Z,101217.00
2023-06-12T08:55:57.271Z,101212.60
2023-06-12T09:01:09.824Z,101212.40
2023-06-12T09:06:23.356Z,101210.80
2023-06-12T09:11:36.909Z,101207.40
2023-06-12T09:16:52.058Z,101204.40
2023-06-12T09:22:02.059Z,101194.20
2023-06-12T09:27:13.934Z,101211.60
2023-06-12T09:32:30.699Z,101202.20
2023-06-12T09:37:47.511Z,101198.80
2023-06-12T09:42:57.406Z,101210.20
2023-06-12T09:48:12.437Z,101199.00
2023-06-12T09:53:24.454Z,101193.60
2023-06-12T09:58:36.423Z,101191.80
2023-06-12T10:03:49.888Z,101184.00
2023-06-12T10:09:00.957Z,101176.80
2023-06-12T10:14:11.161Z,101175.60
2023-06-12T10:19:21.097Z,101169.60
2023-06-12T10:24:31.453Z,101163.40
2023-06-12T10:29:43.071Z,101162.20
2023-06-12T10:34:57.056Z,101161.60
2023-06-12T10:40:21.580Z,101159.80
2023-06-12T10:45:35.340Z,101156.60
2023-06-12T10:50:50.736Z,101149.60
2023-06-12T10:56:10.077Z,101147.40
2023-06-12T11:01:21.667Z,101134.00
2023-06-12T11:06:34.334Z,101131.40
2023-06-12T11:11:52.322Z,101129.60
2023-06-12T11:17:05.460Z,101121.60
2023-06-12T11:22:16.019Z,101115.20
2023-06-12T11:27:29.668Z,101104.80
2023-06-12T11:32:39.539Z,101100.40
2023-06-12T11:43:02.474Z,101084.00
2023-06-12T11:53:28.723Z,101076.00
2023-06-12T11:58:46.011Z,101069.60
2023-06-12T12:04:04.896Z,101077.20
2023-06-12T12:09:25.150Z,101068.20
2023-06-12T12:14:35.798Z,101060.80
2023-06-12T12:19:45.927Z,101067.80
2023-06-12T12:25:01.226Z,101067.60
2023-06-12T12:30:15.805Z,101066.20
2023-06-12T12:35:29.085Z,101059.60
2023-06-12T12:40:38.908Z,101048.00
2023-06-12T12:45:48.512Z,101037.40
2023-06-12T12:51:09.136Z,101037.60
2023-06-12T12:56:20.482Z,101035.40
2023-06-12T13:01:30.218Z,101040.60
2023-06-12T13:06:40.346Z,101030.00
2023-06-12T13:11:50.094Z,101028.00
2023-06-12T13:17:00.615Z,101013.60
2023-06-12T13:22:12.857Z,101001.40
2023-06-12T13:27:23.197Z,101002.80
2023-06-12T13:32:35.094Z,100995.20
2023-06-12T13:37:45.044Z,101003.80
2023-06-12T13:42:54.775Z,100998.00
2023-06-12T13:48:05.085Z,100998.40
2023-06-12T13:53:14.776Z,100988.80
2023-06-12T13:58:24.513Z,100988.20
2023-06-12T14:03:34.288Z,100984.60
2023-06-12T14:08:44.293Z,100976.20
2023-06-12T14:13:54.165Z,100972.80
2023-06-12T14:19:03.872Z,100975.40
2023-06-12T14:24:27.889Z,100971.20
2023-06-12T14:29:43.906Z,100978.60
2023-06-12T14:34:53.654Z,100969.20
2023-06-12T14:40:03.513Z,100972.60
2023-06-12T14:45:15.258Z,100962.80
2023-06-12T14:50:25.401Z,100962.80
2023-06-12T14:55:35.807Z,100960.40
2023-06-12T15:00:46.601Z,100951.40
2023-06-12T15:05:57.054Z,100953.60
2023-06-12T15:11:06.788Z,100945.80
2023-06-12T15:16:16.800Z,100942.80
2023-06-12T15:21:26.600Z,100943.00
2023-06-12T15:26:36.277Z,100939.60
2023-06-12T15:31:48.439Z,100887.80
2023-06-12T15:36:58.227Z,100847.60
2023-06-12T15:42:11.614Z,100844.60
2023-06-12T15:47:21.861Z,100841.40
2023-06-12T15:52:31.726Z,100843.80
2023-06-12T15:57:41.497Z,100840.00
2023-06-12T16:02:52.250Z,100837.20
2023-06-12T16:08:02.436Z,100836.60
2023-06-12T16:13:12.303Z,100833.60
2023-06-12T16:18:23.920Z,100830.80
2023-06-12T16:23:33.811Z,100830.00
2023-06-12T16:28:43.748Z,100816.40
2023-06-12T16:33:53.584Z,100810.20
2023-06-12T16:39:04.729Z,100811.80
2023-06-12T16:44:15.552Z,100833.20
2023-06-12T16:49:25.276Z,100908.20
2023-06-12T16:54:35.604Z,100834.80
2023-06-12T16:59:45.860Z,100793.00
2023-06-12T17:04:56.459Z,100784.20
2023-06-12T17:10:07.477Z,100951.00
2023-06-12T17:15:17.825Z,100941.20
2023-06-12T17:20:28.024Z,100885.00
2023-06-12T17:25:38.814Z,100923.60
2023-06-12T17:30:48.514Z,100885.40
2023-06-12T17:35:59.409Z,100937.20
2023-06-12T17:41:09.234Z,100929.00
2023-06-12T17:46:21.283Z,100880.80
2023-06-12T17:51:31.450Z,100888.60
2023-06-12T17:56:41.572Z,100931.40
2023-06-12T18:01:52.721Z,100931.40
2023-06-12T18:07:02.783Z,100930.20
2023-06-12T18:12:14.569Z,100929.20
2023-06-12T18:17:24.620Z,100929.00
2023-06-12T18:22:34.505Z,100929.60
2023-06-12T18:27:44.683Z,100931.40
2023-06-12T18:32:54.558Z,100930.00
2023-06-12T18:38:05.757Z,100924.80
2023-06-12T18:43:20.223Z,100928.00
2023-06-12T18:48:30.861Z,100925.40
2023-06-12T18:53:40.546Z,100922.80
2023-06-12T18:58:50.479Z,100921.60
2023-06-12T19:04:00.405Z,100932.60
2023-06-12T19:09:13.481Z,100938.20
2023-06-12T19:14:24.253Z,100933.00
2023-06-12T19:19:34.302Z,100941.60
2023-06-12T19:24:44.121Z,100954.00
2023-06-12T19:29:54.044Z,100967.40
2023-06-12T19:35:04.193Z,100959.40
2023-06-12T19:40:17.971Z,100961.40
2023-06-12T19:45:28.034Z,100958.80
2023-06-12T19:50:37.756Z,100958.00
2023-06-12T19:55:50.182Z,100963.00
2023-06-12T20:01:03.294Z,100980.20
2023-06-12T20:06:13.675Z,101001.40
2023-06-12T20:11:24.951Z,101016.40
2023-06-12T20:16:36.587Z,101011.00
2023-06-12T20:21:50.574Z,101003.00
2023-06-12T20:27:00.618Z,101007.00
2023-06-12T20:32:13.015Z,101003.20
2023-06-12T20:37:23.157Z,101024.80
2023-06-12T20:42:33.032Z,101035.80
2023-06-12T20:47:42.997Z,101042.00
2023-06-12T20:52:52.909Z,101026.20
2023-06-12T20:58:02.817Z,101005.60
2023-06-12T21:03:12.937Z,101006.20
2023-06-12T21:08:22.757Z,101012.60
2023-06-12T21:13:32.636Z,101014.80
2023-06-12T21:18:42.604Z,101020.40
2023-06-12T21:23:52.741Z,101016.00
2023-06-12T21:29:02.977Z,101014.80
2023-06-12T21:34:13.312Z,101021.20
2023-06-12T21:46:17.678Z,101015.60
2023-06-12T21:51:27.659Z,101021.80
2023-06-12T21:56:41.138Z,101017.40
2023-06-12T22:01:51.621Z,101009.00
2023-06-12T22:07:01.506Z,101005.00
2023-06-12T22:12:13.175Z,101002.60
2023-06-12T22:17:23.402Z,101004.80
2023-06-12T22:22:33.652Z,101002.20
2023-06-12T22:27:44.099Z,101008.80
2023-06-12T22:32:54.318Z,100992.80
2023-06-12T22:38:04.378Z,100994.00
2023-06-12T22:43:16.534Z,100994.40
2023-06-12T22:48:31.872Z,100978.20
2023-06-12T22:53:42.148Z,100977.80
2023-06-12T22:58:52.800Z,100984.40
2023-06-12T23:04:04.392Z,100975.60
2023-06-12T23:09:16.546Z,100972.60
2023-06-12T23:14:27.167Z,100969.00
2023-06-12T23:19:37.193Z,100966.20
2023-06-12T23:24:48.231Z,100960.20
2023-06-12T23:29:58.451Z,100955.00
2023-06-12T23:35:09.830Z,100942.80
2023-06-12T23:40:20.537Z,100937.80
2023-06-12T23:45:30.521Z,100930.60
2023-06-12T23:50:41.992Z,100929.20
2023-06-12T23:55:52.143Z,100918.60
